sensor_id;sensor_type;location;lat;lon;timestamp;temperature;humidity
67974;DHT22;54756;51.140;6.952;2023-06-22T00:01:40;26.60;25.50
67974;DHT22;54756;51.140;6.952;2023-06-22T00:03:41;26.60;25.40
67974;DHT22;54756;51.140;6.952;2023-06-22T00:05:41;26.60;25.40
67974;DHT22;54756;51.140;6.952;2023-06-22T00:07:42;26.60;25.50
67974;DHT22;54756;51.140;6.952;2023-06-22T00:09:42;26.60;25.30
67974;DHT22;54756;51.140;6.952;2023-06-22T00:11:43;26.60;25.10
67974;DHT22;54756;51.140;6.952;2023-06-22T00:13:43;26.60;25.30
67974;DHT22;54756;51.140;6.952;2023-06-22T00:15:45;26.60;25.00
67974;DHT22;54756;51.140;6.952;2023-06-22T00:17:45;26.60;24.80
67974;DHT22;54756;51.140;6.952;2023-06-22T00:19:49;26.60;25.00
67974;DHT22;54756;51.140;6.952;2023-06-22T00:21:53;26.50;25.00
67974;DHT22;54756;51.140;6.952;2023-06-22T00:23:54;26.50;24.80
67974;DHT22;54756;51.140;6.952;2023-06-22T00:25:54;26.60;24.60
67974;DHT22;54756;51.140;6.952;2023-06-22T00:27:55;26.50;24.50
67974;DHT22;54756;51.140;6.952;2023-06-22T00:29:55;26.50;24.40
67974;DHT22;54756;51.140;6.952;2023-06-22T00:31:56;26.50;24.40
67974;DHT22;54756;51.140;6.952;2023-06-22T00:33:56;26.50;24.20
67974;DHT22;54756;51.140;6.952;2023-06-22T00:35:57;26.50;23.90
67974;DHT22;54756;51.140;6.952;2023-06-22T00:37:59;26.50;24.10
67974;DHT22;54756;51.140;6.952;2023-06-22T00:40:05;26.50;23.80
67974;DHT22;54756;51.140;6.952;2023-06-22T00:42:06;26.50;24.10
67974;DHT22;54756;51.140;6.952;2023-06-22T00:44:06;26.40;24.00
67974;DHT22;54756;51.140;6.952;2023-06-22T00:46:07;26.50;24.20
67974;DHT22;54756;51.140;6.952;2023-06-22T00:48:08;26.40;24.00
67974;DHT22;54756;51.140;6.952;2023-06-22T00:50:09;26.40;23.60
67974;DHT22;54756;51.140;6.952;2023-06-22T00:52:11;26.40;24.00
67974;DHT22;54756;51.140;6.952;2023-06-22T00:54:14;26.50;23.60
67974;DHT22;54756;51.140;6.952;2023-06-22T00:56:15;26.40;23.70
67974;DHT22;54756;51.140;6.952;2023-06-22T00:58:19;26.40;23.90
67974;DHT22;54756;51.140;6.952;2023-06-22T01:00:23;26.40;23.80
67974;DHT22;54756;51.140;6.952;2023-06-22T01:02:24;26.40;23.60
67974;DHT22;54756;51.140;6.952;2023-06-22T01:04:34;26.40;23.00
67974;DHT22;54756;51.140;6.952;2023-06-22T01:06:45;26.40;22.70
67974;DHT22;54756;51.140;6.952;2023-06-22T01:08:53;26.40;22.50
67974;DHT22;54756;51.140;6.952;2023-06-22T01:11:05;26.40;22.30
67974;DHT22;54756;51.140;6.952;2023-06-22T01:13:15;26.40;21.70
67974;DHT22;54756;51.140;6.952;2023-06-22T01:17:26;26.40;21.40
67974;DHT22;54756;51.140;6.952;2023-06-22T01:19:49;26.40;21.60
67974;DHT22;54756;51.140;6.952;2023-06-22T01:21:56;26.30;22.20
67974;DHT22;54756;51.140;6.952;2023-06-22T01:24:14;26.30;21.40
67974;DHT22;54756;51.140;6.952;2023-06-22T01:26:42;26.30;21.70
67974;DHT22;54756;51.140;6.952;2023-06-22T01:28:48;26.30;21.60
67974;DHT22;54756;51.140;6.952;2023-06-22T01:30:51;26.30;21.30
67974;DHT22;54756;51.140;6.952;2023-06-22T01:33:04;26.30;21.10
67974;DHT22;54756;51.140;6.952;2023-06-22T01:35:07;26.30;20.90
67974;DHT22;54756;51.140;6.952;2023-06-22T01:37:08;26.30;20.70
67974;DHT22;54756;51.140;6.952;2023-06-22T01:39:10;26.30;20.40
67974;DHT22;54756;51.140;6.952;2023-06-22T01:41:12;26.30;20.50
67974;DHT22;54756;51.140;6.952;2023-06-22T01:43:12;26.30;20.50
67974;DHT22;54756;51.140;6.952;2023-06-22T01:45:13;26.30;20.40
67974;DHT22;54756;51.140;6.952;2023-06-22T01:47:15;26.30;20.60
67974;DHT22;54756;51.140;6.952;2023-06-22T01:49:16;26.30;20.60
67974;DHT22;54756;51.140;6.952;2023-06-22T01:51:16;26.20;20.60
67974;DHT22;54756;51.140;6.952;2023-06-22T01:53:17;26.30;20.60
67974;DHT22;54756;51.140;6.952;2023-06-22T01:55:18;26.20;20.40
67974;DHT22;54756;51.140;6.952;2023-06-22T01:57:19;26.20;20.40
67974;DHT22;54756;51.140;6.952;2023-06-22T01:59:30;26.20;20.30
67974;DHT22;54756;51.140;6.952;2023-06-22T02:01:39;26.20;20.30
67974;DHT22;54756;51.140;6.952;2023-06-22T02:03:55;26.20;20.30
67974;DHT22;54756;51.140;6.952;2023-06-22T02:06:41;26.20;20.30
67974;DHT22;54756;51.140;6.952;2023-06-22T02:08:23;26.20;20.80
67974;DHT22;54756;51.140;6.952;2023-06-22T02:10:26;26.20;19.90
67974;DHT22;54756;51.140;6.952;2023-06-22T02:12:28;26.20;19.40
67974;DHT22;54756;51.140;6.952;2023-06-22T02:14:29;26.20;19.00
67974;DHT22;54756;51.140;6.952;2023-06-22T02:16:31;26.20;19.00
67974;DHT22;54756;51.140;6.952;2023-06-22T02:18:32;26.20;18.80
67974;DHT22;54756;51.140;6.952;2023-06-22T02:20:37;26.20;18.70
67974;DHT22;54756;51.140;6.952;2023-06-22T02:22:38;26.20;18.70
67974;DHT22;54756;51.140;6.952;2023-06-22T02:24:39;26.10;18.60
67974;DHT22;54756;51.140;6.952;2023-06-22T02:26:39;26.10;18.70
67974;DHT22;54756;51.140;6.952;2023-06-22T02:28:42;26.10;18.50
67974;DHT22;54756;51.140;6.952;2023-06-22T02:30:43;26.10;18.70
67974;DHT22;54756;51.140;6.952;2023-06-22T02:32:43;26.10;18.60
67974;DHT22;54756;51.140;6.952;2023-06-22T02:34:44;26.10;18.60
67974;DHT22;54756;51.140;6.952;2023-06-22T02:36:48;26.10;18.60
67974;DHT22;54756;51.140;6.952;2023-06-22T02:38:53;26.10;18.60
67974;DHT22;54756;51.140;6.952;2023-06-22T02:40:54;26.10;18.70
67974;DHT22;54756;51.140;6.952;2023-06-22T02:42:55;26.10;18.70
67974;DHT22;54756;51.140;6.952;2023-06-22T02:44:58;26.10;18.80
67974;DHT22;54756;51.140;6.952;2023-06-22T02:46:58;26.10;19.40
67974;DHT22;54756;51.140;6.952;2023-06-22T02:48:59;26.10;18.80
67974;DHT22;54756;51.140;6.952;2023-06-22T02:51:00;26.10;18.70
67974;DHT22;54756;51.140;6.952;2023-06-22T02:53:00;26.10;18.70
67974;DHT22;54756;51.140;6.952;2023-06-22T02:55:01;26.00;18.60
67974;DHT22;54756;51.140;6.952;2023-06-22T02:57:01;26.10;18.60
67974;DHT22;54756;51.140;6.952;2023-06-22T02:59:03;26.00;18.50
67974;DHT22;54756;51.140;6.952;2023-06-22T03:01:07;26.00;18.50
67974;DHT22;54756;51.140;6.952;2023-06-22T03:03:07;26.00;18.80
67974;DHT22;54756;51.140;6.952;2023-06-22T03:05:08;26.10;18.70
67974;DHT22;54756;51.140;6.952;2023-06-22T03:07:13;26.00;18.60
67974;DHT22;54756;51.140;6.952;2023-06-22T03:09:14;26.00;18.70
67974;DHT22;54756;51.140;6.952;2023-06-22T03:11:14;26.00;18.60
67974;DHT22;54756;51.140;6.952;2023-06-22T03:13:15;26.00;18.60
67974;DHT22;54756;51.140;6.952;2023-06-22T03:15:17;26.00;18.50
67974;DHT22;54756;51.140;6.952;2023-06-22T03:17:20;26.00;18.50
67974;DHT22;54756;51.140;6.952;2023-06-22T03:19:20;26.00;19.10
67974;DHT22;54756;51.140;6.952;2023-06-22T03:21:22;25.90;18.50
67974;DHT22;54756;51.140;6.952;2023-06-22T03:23:23;25.90;18.40
67974;DHT22;54756;51.140;6.952;2023-06-22T03:25:23;26.00;18.40
67974;DHT22;54756;51.140;6.952;2023-06-22T03:27:24;25.90;18.20
67974;DHT22;54756;51.140;6.952;2023-06-22T03:29:25;25.90;18.20
67974;DHT22;54756;51.140;6.952;2023-06-22T03:31:26;25.90;18.30
67974;DHT22;54756;51.140;6.952;2023-06-22T03:33:26;25.90;18.20
67974;DHT22;54756;51.140;6.952;2023-06-22T03:35:27;25.90;18.20
67974;DHT22;54756;51.140;6.952;2023-06-22T03:37:28;25.90;18.20
67974;DHT22;54756;51.140;6.952;2023-06-22T03:39:29;25.90;18.20
67974;DHT22;54756;51.140;6.952;2023-06-22T03:41:30;25.90;18.10
67974;DHT22;54756;51.140;6.952;2023-06-22T03:43:30;25.90;18.30
67974;DHT22;54756;51.140;6.952;2023-06-22T03:45:31;25.90;18.50
67974;DHT22;54756;51.140;6.952;2023-06-22T03:47:32;25.90;18.40
67974;DHT22;54756;51.140;6.952;2023-06-22T03:49:33;25.90;18.40
67974;DHT22;54756;51.140;6.952;2023-06-22T03:51:34;25.90;18.50
67974;DHT22;54756;51.140;6.952;2023-06-22T03:53:35;25.90;18.40
67974;DHT22;54756;51.140;6.952;2023-06-22T03:55:35;25.80;18.50
67974;DHT22;54756;51.140;6.952;2023-06-22T03:57:36;25.80;18.50
67974;DHT22;54756;51.140;6.952;2023-06-22T03:59:36;25.80;18.60
67974;DHT22;54756;51.140;6.952;2023-06-22T04:01:37;25.80;18.50
67974;DHT22;54756;51.140;6.952;2023-06-22T04:03:38;25.80;18.60
67974;DHT22;54756;51.140;6.952;2023-06-22T04:05:39;25.80;18.60
67974;DHT22;54756;51.140;6.952;2023-06-22T04:07:40;25.80;18.60
67974;DHT22;54756;51.140;6.952;2023-06-22T04:09:40;25.80;18.40
67974;DHT22;54756;51.140;6.952;2023-06-22T04:11:41;25.80;18.20
67974;DHT22;54756;51.140;6.952;2023-06-22T04:13:41;25.80;18.10
67974;DHT22;54756;51.140;6.952;2023-06-22T04:15:42;25.80;18.10
67974;DHT22;54756;51.140;6.952;2023-06-22T04:17:43;25.80;18.00
67974;DHT22;54756;51.140;6.952;2023-06-22T04:19:43;25.80;18.00
67974;DHT22;54756;51.140;6.952;2023-06-22T04:21:44;25.80;17.90
67974;DHT22;54756;51.140;6.952;2023-06-22T04:23:45;25.80;17.70
67974;DHT22;54756;51.140;6.952;2023-06-22T04:25:46;25.80;17.70
67974;DHT22;54756;51.140;6.952;2023-06-22T04:27:47;25.70;17.60
67974;DHT22;54756;51.140;6.952;2023-06-22T04:29:48;25.80;17.60
67974;DHT22;54756;51.140;6.952;2023-06-22T04:31:49;25.80;17.50
67974;DHT22;54756;51.140;6.952;2023-06-22T04:33:51;25.70;17.30
67974;DHT22;54756;51.140;6.952;2023-06-22T04:35:51;25.70;17.30
67974;DHT22;54756;51.140;6.952;2023-06-22T04:37:53;25.70;17.30
67974;DHT22;54756;51.140;6.952;2023-06-22T04:39:55;25.80;17.10
67974;DHT22;54756;51.140;6.952;2023-06-22T04:41:55;25.70;17.10
67974;DHT22;54756;51.140;6.952;2023-06-22T04:44:00;25.70;17.10
67974;DHT22;54756;51.140;6.952;2023-06-22T04:46:01;25.70;17.00
67974;DHT22;54756;51.140;6.952;2023-06-22T04:48:04;25.70;17.10
67974;DHT22;54756;51.140;6.952;2023-06-22T04:50:05;25.70;17.00
67974;DHT22;54756;51.140;6.952;2023-06-22T04:52:07;25.70;17.20
67974;DHT22;54756;51.140;6.952;2023-06-22T04:54:09;25.70;17.30
67974;DHT22;54756;51.140;6.952;2023-06-22T04:56:09;25.70;17.60
67974;DHT22;54756;51.140;6.952;2023-06-22T04:58:10;25.70;16.90
67974;DHT22;54756;51.140;6.952;2023-06-22T05:00:13;25.70;16.80
67974;DHT22;54756;51.140;6.952;2023-06-22T05:02:17;25.70;16.70
67974;DHT22;54756;51.140;6.952;2023-06-22T05:04:17;25.70;16.60
67974;DHT22;54756;51.140;6.952;2023-06-22T05:06:18;25.70;16.50
67974;DHT22;54756;51.140;6.952;2023-06-22T05:08:18;25.60;16.30
67974;DHT22;54756;51.140;6.952;2023-06-22T05:10:19;25.60;16.40
67974;DHT22;54756;51.140;6.952;2023-06-22T05:12:20;25.70;16.40
67974;DHT22;54756;51.140;6.952;2023-06-22T05:14:20;25.60;16.30
67974;DHT22;54756;51.140;6.952;2023-06-22T05:16:21;25.60;16.90
67974;DHT22;54756;51.140;6.952;2023-06-22T05:18:24;25.70;16.50
67974;DHT22;54756;51.140;6.952;2023-06-22T05:20:25;25.60;16.30
67974;DHT22;54756;51.140;6.952;2023-06-22T05:22:25;25.60;16.30
67974;DHT22;54756;51.140;6.952;2023-06-22T05:24:26;25.70;16.60
67974;DHT22;54756;51.140;6.952;2023-06-22T05:26:27;25.70;16.90
67974;DHT22;54756;51.140;6.952;2023-06-22T05:28:27;25.60;16.70
67974;DHT22;54756;51.140;6.952;2023-06-22T05:30:28;25.60;16.50
67974;DHT22;54756;51.140;6.952;2023-06-22T05:32:28;25.60;16.50
67974;DHT22;54756;51.140;6.952;2023-06-22T05:34:29;25.60;16.30
67974;DHT22;54756;51.140;6.952;2023-06-22T05:36:29;25.60;16.20
67974;DHT22;54756;51.140;6.952;2023-06-22T05:38:30;25.60;16.00
67974;DHT22;54756;51.140;6.952;2023-06-22T05:40:31;25.60;16.00
67974;DHT22;54756;51.140;6.952;2023-06-22T05:42:31;25.60;16.00
67974;DHT22;54756;51.140;6.952;2023-06-22T05:44:32;25.60;16.00
67974;DHT22;54756;51.140;6.952;2023-06-22T05:46:33;25.60;16.00
67974;DHT22;54756;51.140;6.952;2023-06-22T05:48:34;25.60;16.30
67974;DHT22;54756;51.140;6.952;2023-06-22T05:50:35;25.60;16.50
67974;DHT22;54756;51.140;6.952;2023-06-22T05:52:36;25.50;17.20
67974;DHT22;54756;51.140;6.952;2023-06-22T05:54:37;25.50;17.40
67974;DHT22;54756;51.140;6.952;2023-06-22T05:56:39;25.50;17.80
67974;DHT22;54756;51.140;6.952;2023-06-22T05:58:39;25.50;17.80
67974;DHT22;54756;51.140;6.952;2023-06-22T06:00:41;25.60;17.40
67974;DHT22;54756;51.140;6.952;2023-06-22T06:02:41;25.50;17.20
67974;DHT22;54756;51.140;6.952;2023-06-22T06:04:44;25.50;17.70
67974;DHT22;54756;51.140;6.952;2023-06-22T06:06:44;25.50;18.50
67974;DHT22;54756;51.140;6.952;2023-06-22T06:08:45;25.50;19.30
67974;DHT22;54756;51.140;6.952;2023-06-22T06:10:45;25.50;20.90
67974;DHT22;54756;51.140;6.952;2023-06-22T06:12:46;25.50;22.00
67974;DHT22;54756;51.140;6.952;2023-06-22T06:14:47;25.50;21.20
67974;DHT22;54756;51.140;6.952;2023-06-22T06:16:49;25.50;20.20
67974;DHT22;54756;51.140;6.952;2023-06-22T06:18:49;25.50;19.60
67974;DHT22;54756;51.140;6.952;2023-06-22T06:20:51;25.50;20.60
67974;DHT22;54756;51.140;6.952;2023-06-22T06:22:51;25.50;22.50
67974;DHT22;54756;51.140;6.952;2023-06-22T06:24:52;25.50;24.00
67974;DHT22;54756;51.140;6.952;2023-06-22T06:26:52;25.50;25.30
67974;DHT22;54756;51.140;6.952;2023-06-22T06:28:55;25.50;26.20
67974;DHT22;54756;51.140;6.952;2023-06-22T06:30:56;25.50;26.60
67974;DHT22;54756;51.140;6.952;2023-06-22T06:32:57;25.50;27.30
67974;DHT22;54756;51.140;6.952;2023-06-22T06:34:57;25.40;27.70
67974;DHT22;54756;51.140;6.952;2023-06-22T06:36:58;25.40;28.30
67974;DHT22;54756;51.140;6.952;2023-06-22T06:38:58;25.50;28.50
67974;DHT22;54756;51.140;6.952;2023-06-22T06:40:59;25.40;28.30
67974;DHT22;54756;51.140;6.952;2023-06-22T06:42:59;25.40;28.40
67974;DHT22;54756;51.140;6.952;2023-06-22T06:45:00;25.40;28.70
67974;DHT22;54756;51.140;6.952;2023-06-22T06:47:00;25.40;28.50
67974;DHT22;54756;51.140;6.952;2023-06-22T06:49:01;25.40;27.00
67974;DHT22;54756;51.140;6.952;2023-06-22T06:51:02;25.40;26.60
67974;DHT22;54756;51.140;6.952;2023-06-22T06:53:02;25.40;27.10
67974;DHT22;54756;51.140;6.952;2023-06-22T06:55:04;25.40;26.60
67974;DHT22;54756;51.140;6.952;2023-06-22T06:57:08;25.40;25.70
67974;DHT22;54756;51.140;6.952;2023-06-22T06:59:11;25.40;25.30
67974;DHT22;54756;51.140;6.952;2023-06-22T07:01:12;25.40;24.70
67974;DHT22;54756;51.140;6.952;2023-06-22T07:03:13;25.30;26.10
67974;DHT22;54756;51.140;6.952;2023-06-22T07:05:13;25.40;26.50
67974;DHT22;54756;51.140;6.952;2023-06-22T07:07:14;25.30;26.10
67974;DHT22;54756;51.140;6.952;2023-06-22T07:09:15;25.40;25.40
67974;DHT22;54756;51.140;6.952;2023-06-22T07:11:15;25.30;24.70
67974;DHT22;54756;51.140;6.952;2023-06-22T07:13:16;25.30;24.40
67974;DHT22;54756;51.140;6.952;2023-06-22T07:15:16;25.30;25.10
67974;DHT22;54756;51.140;6.952;2023-06-22T07:17:17;25.30;26.70
67974;DHT22;54756;51.140;6.952;2023-06-22T07:19:27;25.30;26.20
67974;DHT22;54756;51.140;6.952;2023-06-22T07:21:28;25.30;25.60
67974;DHT22;54756;51.140;6.952;2023-06-22T07:23:28;25.30;26.20
67974;DHT22;54756;51.140;6.952;2023-06-22T07:25:29;25.30;26.30
67974;DHT22;54756;51.140;6.952;2023-06-22T07:27:29;25.30;26.60
67974;DHT22;54756;51.140;6.952;2023-06-22T07:29:35;25.20;27.00
67974;DHT22;54756;51.140;6.952;2023-06-22T07:31:36;25.30;27.30
67974;DHT22;54756;51.140;6.952;2023-06-22T07:33:37;25.30;26.80
67974;DHT22;54756;51.140;6.952;2023-06-22T07:35:37;25.20;26.30
67974;DHT22;54756;51.140;6.952;2023-06-22T07:37:38;25.20;26.00
67974;DHT22;54756;51.140;6.952;2023-06-22T07:39:38;25.20;26.80
67974;DHT22;54756;51.140;6.952;2023-06-22T07:41:39;25.20;26.40
67974;DHT22;54756;51.140;6.952;2023-06-22T07:43:43;25.20;26.80
67974;DHT22;54756;51.140;6.952;2023-06-22T07:45:48;25.20;28.60
67974;DHT22;54756;51.140;6.952;2023-06-22T07:47:52;25.20;28.00
67974;DHT22;54756;51.140;6.952;2023-06-22T07:49:53;25.20;26.90
67974;DHT22;54756;51.140;6.952;2023-06-22T07:51:55;25.20;26.20
67974;DHT22;54756;51.140;6.952;2023-06-22T07:53:55;25.20;25.60
67974;DHT22;54756;51.140;6.952;2023-06-22T07:55:56;25.20;25.60
67974;DHT22;54756;51.140;6.952;2023-06-22T07:57:56;25.20;25.20
67974;DHT22;54756;51.140;6.952;2023-06-22T07:59:57;25.20;25.30
67974;DHT22;54756;51.140;6.952;2023-06-22T08:01:58;25.20;24.90
67974;DHT22;54756;51.140;6.952;2023-06-22T08:03:59;25.10;24.60
67974;DHT22;54756;51.140;6.952;2023-06-22T08:05:59;25.20;24.80
67974;DHT22;54756;51.140;6.952;2023-06-22T08:08:00;25.10;24.40
67974;DHT22;54756;51.140;6.952;2023-06-22T08:10:01;25.10;24.90
67974;DHT22;54756;51.140;6.952;2023-06-22T08:12:01;25.20;24.60
67974;DHT22;54756;51.140;6.952;2023-06-22T08:14:02;25.20;24.40
67974;DHT22;54756;51.140;6.952;2023-06-22T08:16:03;25.20;24.60
67974;DHT22;54756;51.140;6.952;2023-06-22T08:18:03;25.20;24.60
67974;DHT22;54756;51.140;6.952;2023-06-22T08:20:05;25.10;24.50
67974;DHT22;54756;51.140;6.952;2023-06-22T08:22:15;25.20;24.50
67974;DHT22;54756;51.140;6.952;2023-06-22T08:24:15;25.10;24.60
67974;DHT22;54756;51.140;6.952;2023-06-22T08:26:16;25.20;24.80
67974;DHT22;54756;51.140;6.952;2023-06-22T08:28:16;25.10;25.30
67974;DHT22;54756;51.140;6.952;2023-06-22T08:30:17;25.10;25.10
67974;DHT22;54756;51.140;6.952;2023-06-22T08:32:19;25.10;25.50
67974;DHT22;54756;51.140;6.952;2023-06-22T08:34:19;25.10;25.50
67974;DHT22;54756;51.140;6.952;2023-06-22T08:36:21;25.20;25.60
67974;DHT22;54756;51.140;6.952;2023-06-22T08:38:22;25.10;25.50
67974;DHT22;54756;51.140;6.952;2023-06-22T08:40:23;25.20;25.70
67974;DHT22;54756;51.140;6.952;2023-06-22T08:42:24;25.10;25.80
67974;DHT22;54756;51.140;6.952;2023-06-22T08:44:25;25.10;26.10
67974;DHT22;54756;51.140;6.952;2023-06-22T08:46:26;25.10;26.20
67974;DHT22;54756;51.140;6.952;2023-06-22T08:48:30;25.10;26.30
67974;DHT22;54756;51.140;6.952;2023-06-22T08:50:31;25.10;26.40
67974;DHT22;54756;51.140;6.952;2023-06-22T08:52:31;25.10;26.50
67974;DHT22;54756;51.140;6.952;2023-06-22T08:54:32;25.10;26.60
67974;DHT22;54756;51.140;6.952;2023-06-22T08:56:33;25.10;26.80
67974;DHT22;54756;51.140;6.952;2023-06-22T08:58:33;25.10;27.10
67974;DHT22;54756;51.140;6.952;2023-06-22T09:00:34;25.10;27.40
67974;DHT22;54756;51.140;6.952;2023-06-22T09:02:35;25.10;27.70
67974;DHT22;54756;51.140;6.952;2023-06-22T09:04:37;25.10;27.80
67974;DHT22;54756;51.140;6.952;2023-06-22T09:06:37;25.10;27.70
67974;DHT22;54756;51.140;6.952;2023-06-22T09:08:45;25.10;27.70
67974;DHT22;54756;51.140;6.952;2023-06-22T09:10:46;25.10;27.90
67974;DHT22;54756;51.140;6.952;2023-06-22T09:12:47;25.10;27.90
67974;DHT22;54756;51.140;6.952;2023-06-22T09:14:47;25.10;28.00
67974;DHT22;54756;51.140;6.952;2023-06-22T09:16:48;25.10;28.70
67974;DHT22;54756;51.140;6.952;2023-06-22T09:18:48;25.10;28.70
67974;DHT22;54756;51.140;6.952;2023-06-22T09:20:49;25.10;28.80
67974;DHT22;54756;51.140;6.952;2023-06-22T09:22:49;25.10;29.20
67974;DHT22;54756;51.140;6.952;2023-06-22T09:24:50;25.10;29.40
67974;DHT22;54756;51.140;6.952;2023-06-22T09:26:50;25.10;29.80
67974;DHT22;54756;51.140;6.952;2023-06-22T09:28:51;25.10;30.00
67974;DHT22;54756;51.140;6.952;2023-06-22T09:30:52;25.10;30.30
67974;DHT22;54756;51.140;6.952;2023-06-22T09:32:59;25.10;30.50
67974;DHT22;54756;51.140;6.952;2023-06-22T09:35:04;25.20;30.50
67974;DHT22;54756;51.140;6.952;2023-06-22T09:37:09;25.10;30.50
67974;DHT22;54756;51.140;6.952;2023-06-22T09:39:10;25.20;30.50
67974;DHT22;54756;51.140;6.952;2023-06-22T09:41:10;25.20;30.40
67974;DHT22;54756;51.140;6.952;2023-06-22T09:43:11;25.10;30.30
67974;DHT22;54756;51.140;6.952;2023-06-22T09:45:12;25.20;30.40
67974;DHT22;54756;51.140;6.952;2023-06-22T09:47:13;25.10;30.60
67974;DHT22;54756;51.140;6.952;2023-06-22T09:49:13;25.20;30.90
67974;DHT22;54756;51.140;6.952;2023-06-22T09:51:14;25.10;30.80
67974;DHT22;54756;51.140;6.952;2023-06-22T09:53:15;25.10;30.90
67974;DHT22;54756;51.140;6.952;2023-06-22T09:55:15;25.10;30.90
67974;DHT22;54756;51.140;6.952;2023-06-22T09:57:16;25.20;30.90
67974;DHT22;54756;51.140;6.952;2023-06-22T09:59:17;25.20;31.60
67974;DHT22;54756;51.140;6.952;2023-06-22T10:01:17;25.10;31.00
67974;DHT22;54756;51.140;6.952;2023-06-22T10:03:18;25.10;30.90
67974;DHT22;54756;51.140;6.952;2023-06-22T10:05:19;25.10;31.00
67974;DHT22;54756;51.140;6.952;2023-06-22T10:07:19;25.10;31.10
67974;DHT22;54756;51.140;6.952;2023-06-22T10:09:20;25.10;31.20
67974;DHT22;54756;51.140;6.952;2023-06-22T10:11:21;25.20;31.30
67974;DHT22;54756;51.140;6.952;2023-06-22T10:13:27;25.10;31.30
67974;DHT22;54756;51.140;6.952;2023-06-22T10:15:27;25.10;31.30
67974;DHT22;54756;51.140;6.952;2023-06-22T10:17:28;25.10;31.40
67974;DHT22;54756;51.140;6.952;2023-06-22T10:19:28;25.10;31.40
67974;DHT22;54756;51.140;6.952;2023-06-22T10:21:29;25.20;31.60
67974;DHT22;54756;51.140;6.952;2023-06-22T10:23:30;25.10;31.70
67974;DHT22;54756;51.140;6.952;2023-06-22T10:25:30;25.20;31.90
67974;DHT22;54756;51.140;6.952;2023-06-22T10:27:31;25.10;31.80
67974;DHT22;54756;51.140;6.952;2023-06-22T10:29:31;25.20;32.00
67974;DHT22;54756;51.140;6.952;2023-06-22T10:31:32;25.10;32.00
67974;DHT22;54756;51.140;6.952;2023-06-22T10:33:33;25.10;32.40
67974;DHT22;54756;51.140;6.952;2023-06-22T10:35:34;25.20;32.50
67974;DHT22;54756;51.140;6.952;2023-06-22T10:37:35;25.20;32.10
67974;DHT22;54756;51.140;6.952;2023-06-22T10:39:35;25.10;31.50
67974;DHT22;54756;51.140;6.952;2023-06-22T10:41:36;25.20;31.10
67974;DHT22;54756;51.140;6.952;2023-06-22T10:43:36;25.20;30.80
67974;DHT22;54756;51.140;6.952;2023-06-22T10:45:37;25.20;30.90
67974;DHT22;54756;51.140;6.952;2023-06-22T10:47:38;25.20;30.90
67974;DHT22;54756;51.140;6.952;2023-06-22T10:49:39;25.20;30.50
67974;DHT22;54756;51.140;6.952;2023-06-22T10:51:39;25.20;30.00
67974;DHT22;54756;51.140;6.952;2023-06-22T10:53:40;25.30;29.70
67974;DHT22;54756;51.140;6.952;2023-06-22T10:55:40;25.30;29.50
67974;DHT22;54756;51.140;6.952;2023-06-22T10:57:41;25.30;29.60
67974;DHT22;54756;51.140;6.952;2023-06-22T10:59:47;25.30;29.60
67974;DHT22;54756;51.140;6.952;2023-06-22T11:01:47;25.40;29.70
67974;DHT22;54756;51.140;6.952;2023-06-22T11:03:48;25.30;29.70
67974;DHT22;54756;51.140;6.952;2023-06-22T11:05:48;25.40;29.60
67974;DHT22;54756;51.140;6.952;2023-06-22T11:07:49;25.40;29.70
67974;DHT22;54756;51.140;6.952;2023-06-22T11:09:50;25.40;29.60
67974;DHT22;54756;51.140;6.952;2023-06-22T11:11:52;25.40;29.50
67974;DHT22;54756;51.140;6.952;2023-06-22T11:13:53;25.40;29.40
67974;DHT22;54756;51.140;6.952;2023-06-22T11:15:54;25.40;29.20
67974;DHT22;54756;51.140;6.952;2023-06-22T11:17:54;25.40;28.80
67974;DHT22;54756;51.140;6.952;2023-06-22T11:19:55;25.40;28.10
67974;DHT22;54756;51.140;6.952;2023-06-22T11:21:55;25.40;27.80
67974;DHT22;54756;51.140;6.952;2023-06-22T11:23:56;25.50;27.40
67974;DHT22;54756;51.140;6.952;2023-06-22T11:25:57;25.50;27.30
67974;DHT22;54756;51.140;6.952;2023-06-22T11:27:57;25.50;27.20
67974;DHT22;54756;51.140;6.952;2023-06-22T11:29:58;25.50;27.30
67974;DHT22;54756;51.140;6.952;2023-06-22T11:31:58;25.50;27.40
67974;DHT22;54756;51.140;6.952;2023-06-22T11:33:59;25.50;27.60
67974;DHT22;54756;51.140;6.952;2023-06-22T11:36:00;25.50;27.80
67974;DHT22;54756;51.140;6.952;2023-06-22T11:38:00;25.50;28.10
67974;DHT22;54756;51.140;6.952;2023-06-22T11:40:01;25.50;28.10
67974;DHT22;54756;51.140;6.952;2023-06-22T11:42:05;25.50;28.40
67974;DHT22;54756;51.140;6.952;2023-06-22T11:44:05;25.50;28.90
67974;DHT22;54756;51.140;6.952;2023-06-22T11:46:06;25.50;29.10
67974;DHT22;54756;51.140;6.952;2023-06-22T11:48:07;25.60;29.30
67974;DHT22;54756;51.140;6.952;2023-06-22T11:50:08;25.60;29.40
67974;DHT22;54756;51.140;6.952;2023-06-22T11:52:08;25.60;29.80
67974;DHT22;54756;51.140;6.952;2023-06-22T11:54:09;25.50;29.80
67974;DHT22;54756;51.140;6.952;2023-06-22T11:56:09;25.60;30.00
67974;DHT22;54756;51.140;6.952;2023-06-22T11:58:10;25.60;30.40
67974;DHT22;54756;51.140;6.952;2023-06-22T12:00:12;25.60;30.60
67974;DHT22;54756;51.140;6.952;2023-06-22T12:02:17;25.60;31.00
67974;DHT22;54756;51.140;6.952;2023-06-22T12:04:17;25.60;31.40
67974;DHT22;54756;51.140;6.952;2023-06-22T12:06:18;25.60;31.90
67974;DHT22;54756;51.140;6.952;2023-06-22T12:08:19;25.60;32.10
67974;DHT22;54756;51.140;6.952;2023-06-22T12:10:20;25.60;32.50
67974;DHT22;54756;51.140;6.952;2023-06-22T12:12:20;25.70;33.00
67974;DHT22;54756;51.140;6.952;2023-06-22T12:14:21;25.60;33.30
67974;DHT22;54756;51.140;6.952;2023-06-22T12:16:22;25.70;33.70
67974;DHT22;54756;51.140;6.952;2023-06-22T12:18:22;25.70;34.10
67974;DHT22;54756;51.140;6.952;2023-06-22T12:20:23;25.70;34.60
67974;DHT22;54756;51.140;6.952;2023-06-22T12:22:24;25.70;34.80
67974;DHT22;54756;51.140;6.952;2023-06-22T12:24:24;25.70;35.20
67974;DHT22;54756;51.140;6.952;2023-06-22T12:26:25;25.70;35.40
67974;DHT22;54756;51.140;6.952;2023-06-22T12:28:26;25.70;35.70
67974;DHT22;54756;51.140;6.952;2023-06-22T12:30:26;25.70;36.00
67974;DHT22;54756;51.140;6.952;2023-06-22T12:32:27;25.70;36.30
67974;DHT22;54756;51.140;6.952;2023-06-22T12:34:28;25.70;36.60
67974;DHT22;54756;51.140;6.952;2023-06-22T12:36:28;25.70;36.70
67974;DHT22;54756;51.140;6.952;2023-06-22T12:38:29;25.70;37.00
67974;DHT22;54756;51.140;6.952;2023-06-22T12:40:29;25.70;37.20
67974;DHT22;54756;51.140;6.952;2023-06-22T12:42:30;25.70;37.50
67974;DHT22;54756;51.140;6.952;2023-06-22T12:44:30;25.70;37.70
67974;DHT22;54756;51.140;6.952;2023-06-22T12:46:31;25.70;38.00
67974;DHT22;54756;51.140;6.952;2023-06-22T12:48:37;25.70;38.20
67974;DHT22;54756;51.140;6.952;2023-06-22T12:50:42;25.70;38.30